EGCC - Manchester Airport
Distance from station: E 5mi, 14km
Updated: 10/22/2017 3:50pm
Light rain, Overcast
Light rain, Overcast
 Wind from varies
Wind: varies 3 mph , 6 km/h
Temperature: 50°F , 10°C
Dew Point: 48°F , 9°C
Humidity: 94%
Barometer: 30 inHg , 1016 hPa
Summary: Light Rain
Clouds: Overcast
Visibility: 6 miles , 9 km
Cloud details: Few Clouds 800 ft
Mostly Cloudy 1400 ft
Overcast 3600 ft
2017/10/22 22:50 EGCC 222250Z AUTO VRB03KT 9000 -RA FEW008 BKN014 OVC036 10/09 Q1016 NOSIG